sensor_id;sensor_type;location;lat;lon;timestamp;P1;durP1;ratioP1;P2;durP2;ratioP2
19903;SDS011;10114;50.970;4.962;2023-02-28T00:01:38;9.80;;;4.43;;
19903;SDS011;10114;50.970;4.962;2023-02-28T00:04:04;10.05;;;4.28;;
19903;SDS011;10114;50.970;4.962;2023-02-28T00:06:30;10.15;;;4.28;;
19903;SDS011;10114;50.970;4.962;2023-02-28T00:08:56;9.65;;;4.15;;
19903;SDS011;10114;50.970;4.962;2023-02-28T00:11:22;10.02;;;3.83;;
19903;SDS011;10114;50.970;4.962;2023-02-28T00:13:48;10.82;;;4.80;;
19903;SDS011;10114;50.970;4.962;2023-02-28T00:16:16;11.23;;;4.35;;
19903;SDS011;10114;50.970;4.962;2023-02-28T00:18:43;11.00;;;4.53;;
19903;SDS011;10114;50.970;4.962;2023-02-28T00:21:09;13.40;;;4.57;;
19903;SDS011;10114;50.970;4.962;2023-02-28T00:23:35;10.15;;;4.38;;
19903;SDS011;10114;50.970;4.962;2023-02-28T00:26:01;8.82;;;4.57;;
19903;SDS011;10114;50.970;4.962;2023-02-28T00:28:27;12.82;;;4.68;;
19903;SDS011;10114;50.970;4.962;2023-02-28T00:30:56;15.30;;;4.78;;
19903;SDS011;10114;50.970;4.962;2023-02-28T00:33:22;10.45;;;4.65;;
19903;SDS011;10114;50.970;4.962;2023-02-28T00:35:48;9.40;;;4.40;;
19903;SDS011;10114;50.970;4.962;2023-02-28T00:38:14;11.45;;;4.60;;
19903;SDS011;10114;50.970;4.962;2023-02-28T00:40:40;13.90;;;4.90;;
19903;SDS011;10114;50.970;4.962;2023-02-28T00:43:07;11.13;;;4.80;;
19903;SDS011;10114;50.970;4.962;2023-02-28T00:45:34;12.65;;;4.80;;
19903;SDS011;10114;50.970;4.962;2023-02-28T00:48:00;10.07;;;4.20;;
19903;SDS011;10114;50.970;4.962;2023-02-28T00:50:26;7.72;;;4.95;;
19903;SDS011;10114;50.970;4.962;2023-02-28T00:52:52;9.75;;;3.92;;
19903;SDS011;10114;50.970;4.962;2023-02-28T00:55:18;10.48;;;4.57;;
19903;SDS011;10114;50.970;4.962;2023-02-28T00:57:44;7.47;;;4.40;;
19903;SDS011;10114;50.970;4.962;2023-02-28T01:00:10;9.65;;;4.22;;
19903;SDS011;10114;50.970;4.962;2023-02-28T01:02:36;9.70;;;4.20;;
19903;SDS011;10114;50.970;4.962;2023-02-28T01:05:02;10.10;;;5.07;;
19903;SDS011;10114;50.970;4.962;2023-02-28T01:07:29;10.50;;;4.47;;
19903;SDS011;10114;50.970;4.962;2023-02-28T01:09:55;9.77;;;4.90;;
19903;SDS011;10114;50.970;4.962;2023-02-28T01:12:21;11.90;;;4.78;;
19903;SDS011;10114;50.970;4.962;2023-02-28T01:14:47;11.13;;;4.57;;
19903;SDS011;10114;50.970;4.962;2023-02-28T01:17:13;10.85;;;4.45;;
19903;SDS011;10114;50.970;4.962;2023-02-28T01:19:39;11.43;;;4.50;;
19903;SDS011;10114;50.970;4.962;2023-02-28T01:22:05;12.48;;;4.80;;
19903;SDS011;10114;50.970;4.962;2023-02-28T01:24:32;9.23;;;4.90;;
19903;SDS011;10114;50.970;4.962;2023-02-28T01:26:58;12.30;;;5.57;;
19903;SDS011;10114;50.970;4.962;2023-02-28T01:29:24;11.20;;;4.38;;
19903;SDS011;10114;50.970;4.962;2023-02-28T01:31:50;15.98;;;4.68;;
19903;SDS011;10114;50.970;4.962;2023-02-28T01:34:16;12.85;;;5.28;;
19903;SDS011;10114;50.970;4.962;2023-02-28T01:36:44;14.65;;;4.43;;
19903;SDS011;10114;50.970;4.962;2023-02-28T01:39:10;10.32;;;4.40;;
19903;SDS011;10114;50.970;4.962;2023-02-28T01:41:37;11.90;;;4.63;;
19903;SDS011;10114;50.970;4.962;2023-02-28T01:44:55;10.05;;;4.85;;
19903;SDS011;10114;50.970;4.962;2023-02-28T01:46:53;9.68;;;4.70;;
19903;SDS011;10114;50.970;4.962;2023-02-28T01:49:19;10.85;;;4.65;;
19903;SDS011;10114;50.970;4.962;2023-02-28T01:51:49;10.07;;;5.03;;
19903;SDS011;10114;50.970;4.962;2023-02-28T01:54:18;14.45;;;5.57;;
19903;SDS011;10114;50.970;4.962;2023-02-28T01:56:49;15.05;;;6.07;;
19903;SDS011;10114;50.970;4.962;2023-02-28T01:59:21;13.25;;;5.70;;
19903;SDS011;10114;50.970;4.962;2023-02-28T02:01:48;10.90;;;5.13;;
19903;SDS011;10114;50.970;4.962;2023-02-28T02:04:14;10.63;;;5.13;;
19903;SDS011;10114;50.970;4.962;2023-02-28T02:06:42;14.48;;;5.18;;
19903;SDS011;10114;50.970;4.962;2023-02-28T02:09:08;12.98;;;5.30;;
19903;SDS011;10114;50.970;4.962;2023-02-28T02:11:34;20.08;;;5.00;;
19903;SDS011;10114;50.970;4.962;2023-02-28T02:14:22;14.05;;;5.15;;
19903;SDS011;10114;50.970;4.962;2023-02-28T02:17:15;13.38;;;5.47;;
19903;SDS011;10114;50.970;4.962;2023-02-28T02:32:38;9.20;;;5.63;;
19903;SDS011;10114;50.970;4.962;2023-02-28T02:38:18;11.70;;;5.50;;
19903;SDS011;10114;50.970;4.962;2023-02-28T02:43:22;16.80;;;6.45;;
19903;SDS011;10114;50.970;4.962;2023-02-28T02:45:55;12.32;;;6.18;;
19903;SDS011;10114;50.970;4.962;2023-02-28T02:48:24;17.08;;;5.65;;
19903;SDS011;10114;50.970;4.962;2023-02-28T02:50:55;13.38;;;6.28;;
19903;SDS011;10114;50.970;4.962;2023-02-28T02:53:23;13.23;;;6.43;;
19903;SDS011;10114;50.970;4.962;2023-02-28T02:55:50;18.75;;;7.18;;
19903;SDS011;10114;50.970;4.962;2023-02-28T02:58:20;14.70;;;5.32;;
19903;SDS011;10114;50.970;4.962;2023-02-28T03:00:48;13.27;;;6.25;;
19903;SDS011;10114;50.970;4.962;2023-02-28T03:03:16;16.17;;;6.55;;
19903;SDS011;10114;50.970;4.962;2023-02-28T03:05:46;15.75;;;6.45;;
19903;SDS011;10114;50.970;4.962;2023-02-28T03:08:13;16.02;;;6.40;;
19903;SDS011;10114;50.970;4.962;2023-02-28T03:10:43;11.52;;;6.28;;
19903;SDS011;10114;50.970;4.962;2023-02-28T03:15:48;12.57;;;6.68;;
19903;SDS011;10114;50.970;4.962;2023-02-28T03:19:02;11.82;;;6.35;;
19903;SDS011;10114;50.970;4.962;2023-02-28T03:21:12;18.75;;;7.03;;
19903;SDS011;10114;50.970;4.962;2023-02-28T03:26:20;11.32;;;6.35;;
19903;SDS011;10114;50.970;4.962;2023-02-28T03:28:50;15.30;;;6.28;;
19903;SDS011;10114;50.970;4.962;2023-02-28T03:31:19;12.75;;;6.10;;
19903;SDS011;10114;50.970;4.962;2023-02-28T03:33:48;13.30;;;6.45;;
19903;SDS011;10114;50.970;4.962;2023-02-28T03:36:20;14.70;;;7.03;;
19903;SDS011;10114;50.970;4.962;2023-02-28T03:38:49;17.77;;;7.72;;
19903;SDS011;10114;50.970;4.962;2023-02-28T03:41:22;21.88;;;8.38;;
19903;SDS011;10114;50.970;4.962;2023-02-28T03:43:50;17.30;;;8.23;;
19903;SDS011;10114;50.970;4.962;2023-02-28T03:46:18;19.45;;;8.20;;
19903;SDS011;10114;50.970;4.962;2023-02-28T03:48:52;21.02;;;7.93;;
19903;SDS011;10114;50.970;4.962;2023-02-28T03:51:21;19.07;;;8.53;;
19903;SDS011;10114;50.970;4.962;2023-02-28T03:53:59;17.95;;;8.13;;
19903;SDS011;10114;50.970;4.962;2023-02-28T03:59:17;20.77;;;9.10;;
19903;SDS011;10114;50.970;4.962;2023-02-28T04:01:45;18.52;;;9.13;;
19903;SDS011;10114;50.970;4.962;2023-02-28T04:04:11;14.07;;;7.88;;
19903;SDS011;10114;50.970;4.962;2023-02-28T04:06:38;20.73;;;8.25;;
19903;SDS011;10114;50.970;4.962;2023-02-28T04:09:05;22.73;;;9.02;;
19903;SDS011;10114;50.970;4.962;2023-02-28T04:14:04;14.65;;;7.20;;
19903;SDS011;10114;50.970;4.962;2023-02-28T04:16:30;20.23;;;8.70;;
19903;SDS011;10114;50.970;4.962;2023-02-28T04:18:56;17.02;;;8.32;;
19903;SDS011;10114;50.970;4.962;2023-02-28T04:21:46;17.73;;;8.30;;
19903;SDS011;10114;50.970;4.962;2023-02-28T04:24:14;18.65;;;9.00;;
19903;SDS011;10114;50.970;4.962;2023-02-28T04:26:44;19.70;;;9.13;;
19903;SDS011;10114;50.970;4.962;2023-02-28T04:29:11;15.98;;;8.75;;
19903;SDS011;10114;50.970;4.962;2023-02-28T04:31:38;13.63;;;7.90;;
19903;SDS011;10114;50.970;4.962;2023-02-28T04:34:04;17.13;;;8.57;;
19903;SDS011;10114;50.970;4.962;2023-02-28T04:36:30;17.25;;;8.90;;
19903;SDS011;10114;50.970;4.962;2023-02-28T04:38:56;23.67;;;8.82;;
19903;SDS011;10114;50.970;4.962;2023-02-28T04:41:23;18.00;;;8.95;;
19903;SDS011;10114;50.970;4.962;2023-02-28T04:43:50;15.57;;;8.82;;
19903;SDS011;10114;50.970;4.962;2023-02-28T04:46:17;14.93;;;8.20;;
19903;SDS011;10114;50.970;4.962;2023-02-28T04:48:43;17.70;;;9.23;;
19903;SDS011;10114;50.970;4.962;2023-02-28T04:51:11;20.33;;;8.85;;
19903;SDS011;10114;50.970;4.962;2023-02-28T04:53:38;20.73;;;8.18;;
19903;SDS011;10114;50.970;4.962;2023-02-28T04:56:04;16.95;;;9.00;;
19903;SDS011;10114;50.970;4.962;2023-02-28T04:58:31;19.55;;;9.05;;
19903;SDS011;10114;50.970;4.962;2023-02-28T05:01:04;15.85;;;9.02;;
19903;SDS011;10114;50.970;4.962;2023-02-28T05:03:38;19.63;;;9.95;;
19903;SDS011;10114;50.970;4.962;2023-02-28T05:06:05;24.65;;;9.27;;
19903;SDS011;10114;50.970;4.962;2023-02-28T05:08:32;16.88;;;8.52;;
19903;SDS011;10114;50.970;4.962;2023-02-28T05:10:58;17.83;;;9.00;;
19903;SDS011;10114;50.970;4.962;2023-02-28T05:13:25;19.42;;;9.63;;
19903;SDS011;10114;50.970;4.962;2023-02-28T05:15:52;26.02;;;10.82;;
19903;SDS011;10114;50.970;4.962;2023-02-28T05:18:18;16.35;;;9.27;;
19903;SDS011;10114;50.970;4.962;2023-02-28T05:20:44;19.02;;;10.00;;
19903;SDS011;10114;50.970;4.962;2023-02-28T05:23:11;21.25;;;10.68;;
19903;SDS011;10114;50.970;4.962;2023-02-28T05:25:37;19.10;;;10.00;;
19903;SDS011;10114;50.970;4.962;2023-02-28T05:28:04;21.48;;;9.85;;
19903;SDS011;10114;50.970;4.962;2023-02-28T05:30:30;20.00;;;10.80;;
19903;SDS011;10114;50.970;4.962;2023-02-28T05:32:57;23.52;;;11.02;;
19903;SDS011;10114;50.970;4.962;2023-02-28T05:35:23;24.33;;;12.17;;
19903;SDS011;10114;50.970;4.962;2023-02-28T05:37:50;29.33;;;11.38;;
19903;SDS011;10114;50.970;4.962;2023-02-28T05:40:16;20.67;;;10.50;;
19903;SDS011;10114;50.970;4.962;2023-02-28T05:42:42;19.23;;;11.13;;
19903;SDS011;10114;50.970;4.962;2023-02-28T05:45:08;18.00;;;10.23;;
19903;SDS011;10114;50.970;4.962;2023-02-28T05:47:35;19.57;;;11.57;;
19903;SDS011;10114;50.970;4.962;2023-02-28T05:50:01;16.40;;;10.05;;
19903;SDS011;10114;50.970;4.962;2023-02-28T05:52:27;20.33;;;8.85;;
19903;SDS011;10114;50.970;4.962;2023-02-28T05:54:55;16.67;;;9.50;;
19903;SDS011;10114;50.970;4.962;2023-02-28T05:57:21;21.38;;;9.43;;
19903;SDS011;10114;50.970;4.962;2023-02-28T05:59:47;19.05;;;9.23;;
19903;SDS011;10114;50.970;4.962;2023-02-28T06:02:14;17.08;;;9.00;;
19903;SDS011;10114;50.970;4.962;2023-02-28T06:04:40;20.65;;;11.93;;
19903;SDS011;10114;50.970;4.962;2023-02-28T06:07:07;17.08;;;9.25;;
19903;SDS011;10114;50.970;4.962;2023-02-28T06:09:36;18.73;;;8.57;;
19903;SDS011;10114;50.970;4.962;2023-02-28T06:12:03;13.43;;;8.10;;
19903;SDS011;10114;50.970;4.962;2023-02-28T06:14:31;17.88;;;8.23;;
19903;SDS011;10114;50.970;4.962;2023-02-28T06:16:58;16.83;;;8.68;;
19903;SDS011;10114;50.970;4.962;2023-02-28T06:19:24;16.83;;;8.80;;
19903;SDS011;10114;50.970;4.962;2023-02-28T06:21:50;18.38;;;8.68;;
19903;SDS011;10114;50.970;4.962;2023-02-28T06:24:18;18.58;;;8.50;;
19903;SDS011;10114;50.970;4.962;2023-02-28T06:26:44;19.25;;;8.95;;
19903;SDS011;10114;50.970;4.962;2023-02-28T06:29:10;12.50;;;7.05;;
19903;SDS011;10114;50.970;4.962;2023-02-28T06:31:36;14.07;;;6.32;;
19903;SDS011;10114;50.970;4.962;2023-02-28T06:34:03;14.73;;;6.97;;
19903;SDS011;10114;50.970;4.962;2023-02-28T06:36:30;10.52;;;5.70;;
19903;SDS011;10114;50.970;4.962;2023-02-28T06:38:56;16.23;;;6.60;;
19903;SDS011;10114;50.970;4.962;2023-02-28T06:41:25;14.07;;;6.30;;
19903;SDS011;10114;50.970;4.962;2023-02-28T06:43:52;12.97;;;7.20;;
19903;SDS011;10114;50.970;4.962;2023-02-28T06:46:18;16.33;;;8.27;;
19903;SDS011;10114;50.970;4.962;2023-02-28T06:48:45;14.87;;;7.10;;
19903;SDS011;10114;50.970;4.962;2023-02-28T06:51:16;15.05;;;7.47;;
19903;SDS011;10114;50.970;4.962;2023-02-28T06:53:42;15.73;;;7.57;;
19903;SDS011;10114;50.970;4.962;2023-02-28T06:56:10;17.05;;;7.60;;
19903;SDS011;10114;50.970;4.962;2023-02-28T06:58:36;16.40;;;6.82;;
19903;SDS011;10114;50.970;4.962;2023-02-28T07:01:02;19.50;;;8.52;;
19903;SDS011;10114;50.970;4.962;2023-02-28T07:03:29;13.50;;;7.40;;
19903;SDS011;10114;50.970;4.962;2023-02-28T07:05:55;13.10;;;5.90;;
19903;SDS011;10114;50.970;4.962;2023-02-28T07:08:22;13.63;;;7.28;;
19903;SDS011;10114;50.970;4.962;2023-02-28T07:10:51;15.40;;;7.00;;
19903;SDS011;10114;50.970;4.962;2023-02-28T07:13:17;16.10;;;7.43;;
19903;SDS011;10114;50.970;4.962;2023-02-28T07:15:43;13.68;;;7.85;;
19903;SDS011;10114;50.970;4.962;2023-02-28T07:18:09;15.95;;;7.32;;
19903;SDS011;10114;50.970;4.962;2023-02-28T07:20:35;13.98;;;7.40;;
19903;SDS011;10114;50.970;4.962;2023-02-28T07:23:01;17.25;;;8.07;;
19903;SDS011;10114;50.970;4.962;2023-02-28T07:25:27;16.05;;;7.95;;
19903;SDS011;10114;50.970;4.962;2023-02-28T07:27:54;11.85;;;6.85;;
19903;SDS011;10114;50.970;4.962;2023-02-28T07:30:20;14.52;;;7.68;;
19903;SDS011;10114;50.970;4.962;2023-02-28T07:32:47;12.20;;;5.82;;
19903;SDS011;10114;50.970;4.962;2023-02-28T07:35:13;15.15;;;7.90;;
19903;SDS011;10114;50.970;4.962;2023-02-28T07:37:40;21.77;;;7.68;;
19903;SDS011;10114;50.970;4.962;2023-02-28T07:40:07;13.30;;;6.55;;
19903;SDS011;10114;50.970;4.962;2023-02-28T07:42:34;16.60;;;6.80;;
19903;SDS011;10114;50.970;4.962;2023-02-28T07:45:01;13.23;;;6.85;;
19903;SDS011;10114;50.970;4.962;2023-02-28T07:47:28;14.88;;;6.35;;
19903;SDS011;10114;50.970;4.962;2023-02-28T07:49:55;12.60;;;6.93;;
19903;SDS011;10114;50.970;4.962;2023-02-28T07:52:21;7.53;;;3.63;;
19903;SDS011;10114;50.970;4.962;2023-02-28T07:54:48;12.85;;;7.00;;
19903;SDS011;10114;50.970;4.962;2023-02-28T07:57:14;15.23;;;6.57;;
19903;SDS011;10114;50.970;4.962;2023-02-28T07:59:40;14.10;;;6.00;;
19903;SDS011;10114;50.970;4.962;2023-02-28T08:02:06;11.20;;;5.28;;
19903;SDS011;10114;50.970;4.962;2023-02-28T08:04:34;13.05;;;5.63;;
19903;SDS011;10114;50.970;4.962;2023-02-28T08:07:00;9.50;;;5.53;;
19903;SDS011;10114;50.970;4.962;2023-02-28T08:09:26;10.18;;;4.35;;
19903;SDS011;10114;50.970;4.962;2023-02-28T08:11:52;10.23;;;3.72;;
19903;SDS011;10114;50.970;4.962;2023-02-28T08:14:18;9.40;;;4.22;;
19903;SDS011;10114;50.970;4.962;2023-02-28T08:16:44;4.55;;;2.20;;
19903;SDS011;10114;50.970;4.962;2023-02-28T08:19:10;11.50;;;4.18;;
19903;SDS011;10114;50.970;4.962;2023-02-28T08:21:36;6.43;;;2.90;;
19903;SDS011;10114;50.970;4.962;2023-02-28T08:24:02;5.72;;;2.95;;
19903;SDS011;10114;50.970;4.962;2023-02-28T08:26:28;7.00;;;2.83;;
19903;SDS011;10114;50.970;4.962;2023-02-28T09:17:30;5.38;;;2.28;;
19903;SDS011;10114;50.970;4.962;2023-02-28T09:19:56;6.30;;;3.20;;
19903;SDS011;10114;50.970;4.962;2023-02-28T09:22:23;6.63;;;2.70;;
19903;SDS011;10114;50.970;4.962;2023-02-28T09:24:49;3.75;;;2.17;;
19903;SDS011;10114;50.970;4.962;2023-02-28T09:27:15;3.25;;;1.67;;
19903;SDS011;10114;50.970;4.962;2023-02-28T09:29:41;4.28;;;1.75;;
19903;SDS011;10114;50.970;4.962;2023-02-28T09:32:07;3.78;;;1.70;;
19903;SDS011;10114;50.970;4.962;2023-02-28T09:34:33;2.53;;;1.38;;
19903;SDS011;10114;50.970;4.962;2023-02-28T09:36:59;4.80;;;1.80;;
19903;SDS011;10114;50.970;4.962;2023-02-28T09:39:25;2.80;;;1.40;;
19903;SDS011;10114;50.970;4.962;2023-02-28T09:41:52;2.22;;;1.35;;
19903;SDS011;10114;50.970;4.962;2023-02-28T09:46:52;5.38;;;2.00;;
19903;SDS011;10114;50.970;4.962;2023-02-28T09:49:21;5.40;;;2.15;;
19903;SDS011;10114;50.970;4.962;2023-02-28T09:54:17;2.83;;;1.23;;
19903;SDS011;10114;50.970;4.962;2023-02-28T09:56:44;4.70;;;2.15;;
19903;SDS011;10114;50.970;4.962;2023-02-28T10:04:42;5.93;;;2.45;;
19903;SDS011;10114;50.970;4.962;2023-02-28T10:09:55;4.45;;;2.28;;
19903;SDS011;10114;50.970;4.962;2023-02-28T10:12:22;3.85;;;1.90;;
19903;SDS011;10114;50.970;4.962;2023-02-28T10:14:50;4.85;;;2.05;;
19903;SDS011;10114;50.970;4.962;2023-02-28T10:17:19;4.10;;;2.05;;
19903;SDS011;10114;50.970;4.962;2023-02-28T10:22:16;4.32;;;1.83;;
19903;SDS011;10114;50.970;4.962;2023-02-28T10:24:47;3.80;;;1.77;;
19903;SDS011;10114;50.970;4.962;2023-02-28T10:29:44;4.97;;;2.35;;
19903;SDS011;10114;50.970;4.962;2023-02-28T10:32:11;4.45;;;2.10;;
19903;SDS011;10114;50.970;4.962;2023-02-28T10:34:38;6.38;;;2.83;;
19903;SDS011;10114;50.970;4.962;2023-02-28T10:37:04;8.75;;;1.95;;
19903;SDS011;10114;50.970;4.962;2023-02-28T10:39:39;3.70;;;1.52;;
19903;SDS011;10114;50.970;4.962;2023-02-28T10:42:05;3.33;;;1.27;;
19903;SDS011;10114;50.970;4.962;2023-02-28T10:44:43;3.22;;;1.58;;
19903;SDS011;10114;50.970;4.962;2023-02-28T10:47:14;4.25;;;1.70;;
19903;SDS011;10114;50.970;4.962;2023-02-28T10:49:41;3.78;;;1.88;;
19903;SDS011;10114;50.970;4.962;2023-02-28T10:52:12;2.17;;;1.20;;
19903;SDS011;10114;50.970;4.962;2023-02-28T10:54:38;3.50;;;2.00;;
19903;SDS011;10114;50.970;4.962;2023-02-28T10:59:34;3.58;;;1.33;;
19903;SDS011;10114;50.970;4.962;2023-02-28T11:02:01;2.85;;;1.30;;
19903;SDS011;10114;50.970;4.962;2023-02-28T11:07:18;2.15;;;1.30;;
19903;SDS011;10114;50.970;4.962;2023-02-28T11:09:45;2.30;;;0.85;;
19903;SDS011;10114;50.970;4.962;2023-02-28T11:14:53;5.40;;;1.75;;
19903;SDS011;10114;50.970;4.962;2023-02-28T11:17:30;4.57;;;1.98;;
19903;SDS011;10114;50.970;4.962;2023-02-28T11:19:58;5.50;;;1.85;;
19903;SDS011;10114;50.970;4.962;2023-02-28T11:22:25;4.30;;;2.17;;
19903;SDS011;10114;50.970;4.962;2023-02-28T11:24:54;2.72;;;1.30;;
19903;SDS011;10114;50.970;4.962;2023-02-28T11:28:04;2.97;;;1.55;;
19903;SDS011;10114;50.970;4.962;2023-02-28T11:30:34;4.68;;;1.90;;
19903;SDS011;10114;50.970;4.962;2023-02-28T11:32:59;4.35;;;1.90;;
19903;SDS011;10114;50.970;4.962;2023-02-28T11:35:38;5.05;;;1.95;;
19903;SDS011;10114;50.970;4.962;2023-02-28T11:38:07;4.22;;;1.80;;
19903;SDS011;10114;50.970;4.962;2023-02-28T11:45:43;4.93;;;2.17;;
19903;SDS011;10114;50.970;4.962;2023-02-28T11:48:18;3.95;;;1.50;;
19903;SDS011;10114;50.970;4.962;2023-02-28T11:50:49;4.60;;;1.73;;
19903;SDS011;10114;50.970;4.962;2023-02-28T11:53:22;3.75;;;1.80;;
19903;SDS011;10114;50.970;4.962;2023-02-28T11:55:54;4.03;;;2.08;;
19903;SDS011;10114;50.970;4.962;2023-02-28T12:05:46;3.45;;;1.58;;
19903;SDS011;10114;50.970;4.962;2023-02-28T12:13:57;2.83;;;1.60;;
19903;SDS011;10114;50.970;4.962;2023-02-28T12:28:47;2.90;;;1.40;;
19903;SDS011;10114;50.970;4.962;2023-02-28T12:31:20;2.75;;;1.50;;
19903;SDS011;10114;50.970;4.962;2023-02-28T12:33:48;4.00;;;1.92;;
19903;SDS011;10114;50.970;4.962;2023-02-28T12:36:16;3.50;;;1.63;;
19903;SDS011;10114;50.970;4.962;2023-02-28T12:41:24;3.85;;;2.00;;
19903;SDS011;10114;50.970;4.962;2023-02-28T12:43:52;3.15;;;1.52;;
19903;SDS011;10114;50.970;4.962;2023-02-28T12:46:22;3.63;;;1.60;;
19903;SDS011;10114;50.970;4.962;2023-02-28T12:48:58;3.38;;;1.70;;
19903;SDS011;10114;50.970;4.962;2023-02-28T12:51:26;2.42;;;1.30;;
19903;SDS011;10114;50.970;4.962;2023-02-28T12:57:24;4.28;;;1.75;;
19903;SDS011;10114;50.970;4.962;2023-02-28T13:09:39;3.72;;;1.83;;
19903;SDS011;10114;50.970;4.962;2023-02-28T13:12:12;5.22;;;1.98;;
19903;SDS011;10114;50.970;4.962;2023-02-28T13:14:39;2.72;;;1.50;;
19903;SDS011;10114;50.970;4.962;2023-02-28T13:19:39;5.20;;;1.95;;
19903;SDS011;10114;50.970;4.962;2023-02-28T13:22:16;7.45;;;1.83;;
19903;SDS011;10114;50.970;4.962;2023-02-28T13:29:38;3.78;;;1.70;;
19903;SDS011;10114;50.970;4.962;2023-02-28T13:34:39;4.50;;;1.50;;
19903;SDS011;10114;50.970;4.962;2023-02-28T13:39:54;3.38;;;1.27;;
19903;SDS011;10114;50.970;4.962;2023-02-28T13:49:55;4.88;;;2.10;;
19903;SDS011;10114;50.970;4.962;2023-02-28T14:00:58;3.33;;;2.00;;
19903;SDS011;10114;50.970;4.962;2023-02-28T14:08:46;6.35;;;2.55;;
19903;SDS011;10114;50.970;4.962;2023-02-28T14:11:23;3.85;;;2.03;;
19903;SDS011;10114;50.970;4.962;2023-02-28T14:13:50;5.03;;;1.85;;
19903;SDS011;10114;50.970;4.962;2023-02-28T14:16:17;4.32;;;2.13;;
19903;SDS011;10114;50.970;4.962;2023-02-28T14:18:55;3.80;;;2.00;;
19903;SDS011;10114;50.970;4.962;2023-02-28T14:21:23;6.82;;;2.83;;
19903;SDS011;10114;50.970;4.962;2023-02-28T14:24:16;5.03;;;2.47;;
19903;SDS011;10114;50.970;4.962;2023-02-28T14:34:51;5.22;;;1.88;;
19903;SDS011;10114;50.970;4.962;2023-02-28T14:40:14;4.35;;;2.30;;
19903;SDS011;10114;50.970;4.962;2023-02-28T14:42:45;4.32;;;2.40;;
19903;SDS011;10114;50.970;4.962;2023-02-28T14:45:19;4.45;;;2.17;;
19903;SDS011;10114;50.970;4.962;2023-02-28T14:47:45;5.07;;;2.22;;
19903;SDS011;10114;50.970;4.962;2023-02-28T14:50:19;5.15;;;2.67;;
19903;SDS011;10114;50.970;4.962;2023-02-28T14:52:45;5.28;;;2.38;;
19903;SDS011;10114;50.970;4.962;2023-02-28T14:55:16;5.00;;;2.60;;
19903;SDS011;10114;50.970;4.962;2023-02-28T15:00:28;12.77;;;4.78;;
19903;SDS011;10114;50.970;4.962;2023-02-28T15:02:58;4.68;;;2.40;;
19903;SDS011;10114;50.970;4.962;2023-02-28T15:05:26;4.38;;;2.03;;
19903;SDS011;10114;50.970;4.962;2023-02-28T15:08:06;5.40;;;2.42;;
19903;SDS011;10114;50.970;4.962;2023-02-28T15:10:34;4.03;;;1.98;;
19903;SDS011;10114;50.970;4.962;2023-02-28T15:15:45;4.00;;;1.77;;
19903;SDS011;10114;50.970;4.962;2023-02-28T15:18:15;7.65;;;2.90;;
19903;SDS011;10114;50.970;4.962;2023-02-28T15:20:43;4.28;;;2.20;;
19903;SDS011;10114;50.970;4.962;2023-02-28T15:23:10;5.70;;;2.40;;
19903;SDS011;10114;50.970;4.962;2023-02-28T15:25:36;22.35;;;2.33;;
19903;SDS011;10114;50.970;4.962;2023-02-28T15:28:02;2.88;;;1.52;;
19903;SDS011;10114;50.970;4.962;2023-02-28T15:30:29;4.47;;;1.77;;
19903;SDS011;10114;50.970;4.962;2023-02-28T15:35:37;9.50;;;1.83;;
19903;SDS011;10114;50.970;4.962;2023-02-28T15:38:13;7.80;;;2.20;;
19903;SDS011;10114;50.970;4.962;2023-02-28T15:40:56;3.78;;;1.75;;
19903;SDS011;10114;50.970;4.962;2023-02-28T15:43:23;3.45;;;1.85;;
19903;SDS011;10114;50.970;4.962;2023-02-28T15:48:33;5.22;;;2.35;;
19903;SDS011;10114;50.970;4.962;2023-02-28T15:51:07;4.78;;;2.25;;
19903;SDS011;10114;50.970;4.962;2023-02-28T15:53:40;5.68;;;2.20;;
19903;SDS011;10114;50.970;4.962;2023-02-28T15:59:05;5.60;;;2.60;;
19903;SDS011;10114;50.970;4.962;2023-02-28T16:01:32;5.32;;;2.30;;
19903;SDS011;10114;50.970;4.962;2023-02-28T16:04:00;6.22;;;2.25;;
19903;SDS011;10114;50.970;4.962;2023-02-28T16:06:40;4.80;;;2.20;;
19903;SDS011;10114;50.970;4.962;2023-02-28T16:09:09;3.55;;;1.52;;
19903;SDS011;10114;50.970;4.962;2023-02-28T16:11:37;4.18;;;1.65;;
19903;SDS011;10114;50.970;4.962;2023-02-28T16:14:05;4.43;;;1.92;;
19903;SDS011;10114;50.970;4.962;2023-02-28T16:16:32;5.30;;;2.03;;
19903;SDS011;10114;50.970;4.962;2023-02-28T16:18:58;4.78;;;2.50;;
19903;SDS011;10114;50.970;4.962;2023-02-28T16:21:24;4.72;;;2.22;;
19903;SDS011;10114;50.970;4.962;2023-02-28T16:23:51;4.78;;;2.33;;
19903;SDS011;10114;50.970;4.962;2023-02-28T16:26:23;3.97;;;2.08;;
19903;SDS011;10114;50.970;4.962;2023-02-28T16:28:52;6.88;;;2.30;;
19903;SDS011;10114;50.970;4.962;2023-02-28T16:31:18;4.93;;;2.33;;
19903;SDS011;10114;50.970;4.962;2023-02-28T16:33:44;4.72;;;2.33;;
19903;SDS011;10114;50.970;4.962;2023-02-28T16:36:13;4.18;;;2.10;;
19903;SDS011;10114;50.970;4.962;2023-02-28T16:38:39;4.90;;;2.47;;
19903;SDS011;10114;50.970;4.962;2023-02-28T16:41:05;4.35;;;2.08;;
19903;SDS011;10114;50.970;4.962;2023-02-28T16:43:32;5.50;;;2.50;;
19903;SDS011;10114;50.970;4.962;2023-02-28T16:45:58;6.03;;;2.85;;
19903;SDS011;10114;50.970;4.962;2023-02-28T16:48:26;4.22;;;1.98;;
19903;SDS011;10114;50.970;4.962;2023-02-28T16:50:52;4.43;;;2.10;;
19903;SDS011;10114;50.970;4.962;2023-02-28T16:53:18;5.50;;;2.13;;
19903;SDS011;10114;50.970;4.962;2023-02-28T16:55:44;4.03;;;1.92;;
19903;SDS011;10114;50.970;4.962;2023-02-28T16:58:14;4.25;;;2.38;;
19903;SDS011;10114;50.970;4.962;2023-02-28T17:00:41;7.22;;;1.92;;
19903;SDS011;10114;50.970;4.962;2023-02-28T17:03:29;5.22;;;2.08;;
19903;SDS011;10114;50.970;4.962;2023-02-28T17:05:54;8.15;;;2.78;;
19903;SDS011;10114;50.970;4.962;2023-02-28T17:08:21;4.68;;;2.63;;
19903;SDS011;10114;50.970;4.962;2023-02-28T17:10:47;7.30;;;2.70;;
19903;SDS011;10114;50.970;4.962;2023-02-28T17:13:13;4.80;;;2.40;;
19903;SDS011;10114;50.970;4.962;2023-02-28T17:15:39;5.63;;;2.33;;
19903;SDS011;10114;50.970;4.962;2023-02-28T17:18:06;7.68;;;2.75;;
19903;SDS011;10114;50.970;4.962;2023-02-28T17:20:33;8.30;;;4.00;;
19903;SDS011;10114;50.970;4.962;2023-02-28T17:23:00;6.60;;;3.08;;
19903;SDS011;10114;50.970;4.962;2023-02-28T17:25:26;5.10;;;2.80;;
19903;SDS011;10114;50.970;4.962;2023-02-28T17:27:52;5.32;;;2.60;;
19903;SDS011;10114;50.970;4.962;2023-02-28T17:30:19;7.97;;;3.78;;
19903;SDS011;10114;50.970;4.962;2023-02-28T17:32:45;7.30;;;3.10;;
19903;SDS011;10114;50.970;4.962;2023-02-28T17:35:11;7.30;;;3.50;;
19903;SDS011;10114;50.970;4.962;2023-02-28T17:37:37;6.50;;;2.90;;
19903;SDS011;10114;50.970;4.962;2023-02-28T17:40:04;7.15;;;3.30;;
19903;SDS011;10114;50.970;4.962;2023-02-28T17:42:30;4.32;;;2.40;;
19903;SDS011;10114;50.970;4.962;2023-02-28T17:44:56;5.15;;;2.47;;
19903;SDS011;10114;50.970;4.962;2023-02-28T17:47:22;6.43;;;3.35;;
19903;SDS011;10114;50.970;4.962;2023-02-28T17:49:48;6.65;;;2.90;;
19903;SDS011;10114;50.970;4.962;2023-02-28T17:52:14;5.78;;;3.00;;
19903;SDS011;10114;50.970;4.962;2023-02-28T17:54:40;8.15;;;3.20;;
19903;SDS011;10114;50.970;4.962;2023-02-28T17:57:10;5.88;;;2.78;;
19903;SDS011;10114;50.970;4.962;2023-02-28T17:59:38;5.30;;;2.65;;
19903;SDS011;10114;50.970;4.962;2023-02-28T18:02:06;8.85;;;3.78;;
19903;SDS011;10114;50.970;4.962;2023-02-28T18:04:32;18.50;;;8.25;;
19903;SDS011;10114;50.970;4.962;2023-02-28T18:06:58;22.67;;;9.73;;
19903;SDS011;10114;50.970;4.962;2023-02-28T18:09:25;11.10;;;5.10;;
19903;SDS011;10114;50.970;4.962;2023-02-28T18:11:52;10.57;;;5.68;;
19903;SDS011;10114;50.970;4.962;2023-02-28T18:14:19;11.95;;;5.40;;
19903;SDS011;10114;50.970;4.962;2023-02-28T18:16:47;12.15;;;5.00;;